Time;durP1;ratioP1;P1;durP2;ratioP2;P2;SDS_P1;SDS_P2;PMS_P1;PMS_P2;Temp;Humidity;BMP_temperature;BMP_pressure;BME280_temperature;BME280_humidity;BME280_pressure;Samples;Min_cycle;Max_cycle;Signal;HPM_P1;HPM_P2
2023/01/29 00:00:18;;;;;;;13.58;5.03;;;;;;;4.67;78.53;100919.02;1803958;79;21131;-51
2023/01/29 00:02:46;;;;;;;12.33;4.65;;;;;;;4.69;78.64;100920.31;1810845;79;21052;-48
2023/01/29 00:05:15;;;;;;;9.55;4.35;;;;;;;4.74;78.81;100915.88;1805455;79;21124;-51
2023/01/29 00:07:44;;;;;;;10.40;4.15;;;;;;;4.79;78.82;100923.22;1806137;79;21166;-57
2023/01/29 00:10:12;;;;;;;12.88;4.75;;;;;;;4.84;78.79;100917.50;1800692;79;21147;-52
2023/01/29 00:12:41;;;;;;;8.90;4.53;;;;;;;4.88;78.70;100917.88;1802089;79;21181;-49
2023/01/29 00:15:10;;;;;;;9.08;4.15;;;;;;;4.90;78.72;100918.72;1803389;77;21084;-51
2023/01/29 00:17:39;;;;;;;9.95;4.03;;;;;;;4.91;78.54;100920.46;1804506;78;21134;-49
2023/01/29 00:20:08;;;;;;;14.07;5.80;;;;;;;4.95;78.49;100911.70;1800804;78;21175;-51
2023/01/29 00:22:36;;;;;;;14.07;4.22;;;;;;;4.96;78.30;100916.05;1797350;79;21048;-56
2023/01/29 00:25:06;;;;;;;13.30;4.85;;;;;;;4.89;78.11;100910.91;1814933;78;21558;-53
2023/01/29 00:27:34;;;;;;;15.10;5.78;;;;;;;4.78;77.91;100921.50;1811959;78;21068;-55
2023/01/29 00:30:11;;;;;;;15.93;5.22;;;;;;;4.53;77.66;100916.55;1811357;78;21648;-54
2023/01/29 00:32:42;;;;;;;14.43;4.47;;;;;;;4.29;77.46;100920.74;1796727;78;21064;-48
2023/01/29 00:35:11;;;;;;;12.23;6.03;;;;;;;4.03;77.39;100920.55;1788339;79;21117;-49
2023/01/29 00:37:40;;;;;;;11.20;5.30;;;;;;;3.78;77.29;100928.59;1807880;79;21076;-53
2023/01/29 00:40:10;;;;;;;9.28;4.37;;;;;;;3.55;77.26;100933.95;1797235;79;21150;-51
2023/01/29 00:45:25;;;;;;;14.23;6.35;;;;;;;3.19;77.19;100936.34;1786009;80;21088;-54
2023/01/29 00:47:54;;;;;;;12.20;5.78;;;;;;;2.98;77.07;100936.88;1785861;80;21141;-53
2023/01/29 00:50:22;;;;;;;18.25;6.47;;;;;;;2.84;76.96;100941.27;1813054;79;21068;-53
2023/01/29 00:52:53;;;;;;;15.95;6.55;;;;;;;2.72;76.98;100942.64;1807884;79;21320;-51
2023/01/29 00:55:22;;;;;;;11.30;5.65;;;;;;;2.62;77.14;100942.67;1786783;79;21232;-48
2023/01/29 00:57:50;;;;;;;14.95;6.65;;;;;;;2.55;77.29;100946.59;1793018;79;21186;-57
2023/01/29 01:00:19;;;;;;;15.40;5.97;;;;;;;2.49;77.40;100943.14;1798962;78;21134;-50
2023/01/29 01:03:06;;;;;;;14.68;5.60;;;;;;;2.43;77.29;100944.88;1796848;79;21135;-55
2023/01/29 01:05:35;;;;;;;13.65;5.87;;;;;;;2.38;77.17;100950.09;1795884;79;21171;-54
2023/01/29 01:10:19;;;;;;;16.50;7.12;;;;;;;2.34;77.12;100945.75;1795349;79;21179;-53
2023/01/29 01:10:35;;;;;;;15.18;6.30;;;;;;;2.29;77.18;100944.92;1790368;79;21630;-53
2023/01/29 01:13:06;;;;;;;16.27;6.40;;;;;;;2.24;77.22;100944.91;1798954;79;21017;-51
2023/01/29 01:15:37;;;;;;;17.45;6.87;;;;;;;2.18;77.25;100950.56;1795613;78;21582;-52
2023/01/29 01:18:06;;;;;;;12.65;6.42;;;;;;;2.10;77.27;100952.73;1798731;79;21241;-52
2023/01/29 01:20:36;;;;;;;13.55;5.95;;;;;;;2.04;77.26;100959.21;1794381;79;21229;-52
2023/01/29 01:23:04;;;;;;;15.10;6.50;;;;;;;2.00;77.29;100958.79;1799272;79;21514;-53
2023/01/29 01:25:33;;;;;;;14.38;6.75;;;;;;;1.97;77.02;100965.72;1798964;79;21637;-52
2023/01/29 01:28:02;;;;;;;21.23;7.55;;;;;;;1.88;76.95;100960.08;1797671;79;21054;-52
2023/01/29 01:30:31;;;;;;;16.55;7.85;;;;;;;1.81;77.09;100960.52;1801328;79;21122;-53
2023/01/29 01:33:00;;;;;;;18.98;9.65;;;;;;;1.75;77.19;100959.20;1799529;79;21135;-50
2023/01/29 01:35:29;;;;;;;24.82;9.98;;;;;;;1.73;77.18;100968.73;1797686;79;21142;-52
2023/01/29 01:37:57;;;;;;;29.35;11.30;;;;;;;1.70;77.18;100968.30;1799243;79;21966;-50
2023/01/29 01:40:26;;;;;;;23.62;9.55;;;;;;;1.69;77.21;100963.96;1800594;78;21171;-52
2023/01/29 01:42:57;;;;;;;21.12;10.88;;;;;;;1.69;77.19;100967.00;1800054;79;21171;-53
2023/01/29 01:45:34;;;;;;;24.70;11.20;;;;;;;1.69;77.11;100972.19;1799630;79;21077;-55
2023/01/29 01:48:11;;;;;;;29.42;11.38;;;;;;;1.71;77.02;100967.86;1795837;79;21229;-52
2023/01/29 01:50:50;;;;;;;24.67;10.38;;;;;;;1.73;76.96;100964.83;1801140;79;21248;-52
2023/01/29 01:53:28;;;;;;;23.18;10.32;;;;;;;1.73;76.87;100969.61;1799951;79;21744;-52
2023/01/29 01:55:59;;;;;;;21.65;8.73;;;;;;;1.76;76.69;100964.84;1799969;79;21087;-53
2023/01/29 01:58:40;;;;;;;28.40;10.25;;;;;;;1.78;76.48;100970.05;1798727;79;21166;-51
2023/01/29 02:01:10;;;;;;;31.20;12.95;;;;;;;1.79;76.29;100968.75;1794965;78;21178;-51
2023/01/29 02:09:36;;;;;;;28.30;11.83;;;;;;;1.85;76.31;100963.55;1800511;79;21151;-51
2023/01/29 02:12:08;;;;;;;23.98;11.22;;;;;;;1.90;76.08;100960.94;1799127;78;21064;-49
2023/01/29 02:14:39;;;;;;;29.57;11.95;;;;;;;1.92;75.82;100964.43;1797864;78;21625;-52
2023/01/29 02:17:10;;;;;;;27.87;11.75;;;;;;;1.92;75.72;100963.13;1798298;79;21720;-51
2023/01/29 02:20:01;;;;;;;30.82;12.35;;;;;;;1.92;75.80;100967.88;1797731;79;21464;-50
2023/01/29 02:22:58;;;;;;;27.37;13.08;;;;;;;1.89;75.96;100968.31;1799217;77;21768;-53
2023/01/29 02:25:49;;;;;;;32.95;12.35;;;;;;;1.89;75.87;100970.47;1797236;79;21241;-51
2023/01/29 02:28:27;;;;;;;26.77;12.75;;;;;;;1.85;75.94;100971.34;1796081;78;21249;-52
2023/01/29 02:30:58;;;;;;;32.90;12.30;;;;;;;1.82;76.23;100969.17;1795413;77;21147;-50
2023/01/29 02:33:46;;;;;;;28.83;11.65;;;;;;;1.86;76.21;100967.89;1806483;78;21148;-52
2023/01/29 02:36:39;;;;;;;30.88;13.03;;;;;;;1.89;76.37;100966.58;1800119;78;21178;-52
2023/01/29 02:39:16;;;;;;;28.85;11.90;;;;;;;1.95;76.35;100963.11;1805663;79;21077;-49
2023/01/29 02:41:51;;;;;;;28.77;12.35;;;;;;;2.01;76.17;100968.33;1797838;79;21076;-53
2023/01/29 02:44:28;;;;;;;24.98;11.57;;;;;;;2.01;76.20;100968.33;1800660;79;21171;-52
2023/01/29 02:47:24;;;;;;;21.85;9.10;;;;;;;2.02;76.08;100966.14;1791312;78;21052;-50
2023/01/29 02:50:12;;;;;;;28.23;10.70;;;;;;;2.04;75.94;100966.15;1792160;79;21100;-51
2023/01/29 02:52:53;;;;;;;32.50;11.20;;;;;;;2.06;75.60;100964.41;1771664;78;21096;-52
2023/01/29 02:55:24;;;;;;;17.12;8.98;;;;;;;2.04;75.55;100960.95;1808709;78;21168;-50
2023/01/29 02:57:56;;;;;;;25.65;12.10;;;;;;;2.01;75.61;100958.34;1801576;79;21158;-52
2023/01/29 03:00:30;;;;;;;26.42;11.93;;;;;;;1.93;75.79;100948.82;1796904;79;21080;-53
2023/01/29 03:03:13;;;;;;;24.40;10.43;;;;;;;1.94;75.90;100956.20;1796676;79;21171;-52
2023/01/29 03:05:52;;;;;;;27.60;12.88;;;;;;;1.97;75.92;100948.39;1802795;79;21198;-51
2023/01/29 03:08:23;;;;;;;29.18;11.60;;;;;;;2.05;75.65;100953.61;1801715;79;21199;-51
2023/01/29 03:10:59;;;;;;;26.17;12.70;;;;;;;2.11;75.41;100942.76;1791174;79;21155;-53
2023/01/29 03:13:42;;;;;;;27.58;11.55;;;;;;;2.17;75.36;100939.73;1800726;78;21101;-50
2023/01/29 03:16:33;;;;;;;23.15;10.75;;;;;;;2.19;75.31;100945.34;1795005;79;21167;-50
2023/01/29 03:19:05;;;;;;;28.07;10.53;;;;;;;2.21;75.17;100944.05;1799694;79;21154;-52
2023/01/29 03:21:58;;;;;;;24.37;10.72;;;;;;;2.19;74.92;100945.78;1802277;78;21304;-48
2023/01/29 03:33:11;;;;;;;25.70;11.05;;;;;;;2.20;74.71;100956.18;1793997;78;21162;-48
2023/01/29 03:35:42;;;;;;;24.00;11.65;;;;;;;2.17;74.93;100960.07;1801098;78;21718;-51
2023/01/29 03:38:12;;;;;;;24.45;10.72;;;;;;;2.17;75.00;100965.27;1798074;77;21076;-50
2023/01/29 03:40:49;;;;;;;22.07;11.90;;;;;;;2.16;74.99;100979.14;1797670;79;21183;-50
2023/01/29 03:43:33;;;;;;;34.80;14.43;;;;;;;2.14;75.13;100970.48;1796736;79;21281;-52
2023/01/29 03:46:08;;;;;;;29.95;13.95;;;;;;;2.16;75.07;100966.56;1799599;79;21183;-47
2023/01/29 03:48:55;;;;;;;32.08;13.43;;;;;;;2.16;75.20;100970.05;1796091;79;21211;-47
2023/01/29 03:51:36;;;;;;;32.53;13.32;;;;;;;2.16;75.24;100977.84;1799457;79;21213;-46
2023/01/29 03:54:13;;;;;;;29.98;10.60;;;;;;;2.20;75.03;100980.00;1796634;79;22259;-49
2023/01/29 03:56:51;;;;;;;26.23;12.30;;;;;;;2.21;74.82;100979.98;1798677;78;21193;-50
2023/01/29 03:59:22;;;;;;;33.30;13.10;;;;;;;2.20;74.67;100978.27;1795388;79;21150;-51
2023/01/29 04:01:56;;;;;;;27.30;12.50;;;;;;;2.20;74.72;100979.56;1793729;79;21225;-49
2023/01/29 04:04:39;;;;;;;31.27;13.90;;;;;;;2.21;74.73;100972.63;1795394;79;21253;-50
2023/01/29 04:07:24;;;;;;;23.35;11.93;;;;;;;2.21;74.72;100966.13;1799055;78;21248;-50
2023/01/29 04:10:05;;;;;;;28.83;12.35;;;;;;;2.19;74.91;100972.63;1797852;79;21227;-50
2023/01/29 04:12:44;;;;;;;28.87;12.37;;;;;;;2.18;74.91;100968.75;1779863;78;21211;-48
2023/01/29 04:15:16;;;;;;;33.25;12.50;;;;;;;2.16;75.13;100976.55;1796492;79;21164;-53
2023/01/29 04:17:51;;;;;;;34.40;13.20;;;;;;;2.12;75.30;100974.79;1815083;79;21119;-54
2023/01/29 04:20:23;;;;;;;29.27;12.78;;;;;;;2.10;75.29;100977.83;1812686;79;21083;-50
2023/01/29 04:22:53;;;;;;;28.80;13.28;;;;;;;2.05;75.27;100972.64;1816019;79;21535;-53
2023/01/29 04:25:29;;;;;;;27.98;10.93;;;;;;;2.05;75.07;100972.64;1819098;78;21527;-52
2023/01/29 04:27:59;;;;;;;25.43;11.68;;;;;;;2.06;74.93;100973.50;1819697;77;21170;-52
2023/01/29 04:30:45;;;;;;;29.63;12.30;;;;;;;2.06;74.76;100978.25;1813965;78;21139;-53
2023/01/29 04:33:20;;;;;;;36.80;14.45;;;;;;;2.07;74.70;100980.45;1821421;79;21193;-51
2023/01/29 04:36:07;;;;;;;29.72;12.43;;;;;;;2.05;74.77;100983.48;1821546;77;21060;-52
2023/01/29 04:38:44;;;;;;;30.35;12.15;;;;;;;2.00;74.94;100979.56;1821348;79;21154;-52
2023/01/29 04:41:28;;;;;;;33.13;13.45;;;;;;;1.97;75.02;100975.66;1821476;77;21068;-53
2023/01/29 04:44:08;;;;;;;38.23;12.93;;;;;;;1.95;75.11;100975.23;1821670;77;21068;-50
2023/01/29 04:46:49;;;;;;;29.10;13.20;;;;;;;1.93;75.17;100978.69;1821529;79;21169;-50
2023/01/29 04:49:22;;;;;;;28.35;12.43;;;;;;;1.87;75.32;100977.40;1821451;79;21068;-52
2023/01/29 04:52:09;;;;;;;25.52;11.57;;;;;;;1.88;75.29;100975.66;1821471;79;21153;-53
2023/01/29 04:54:52;;;;;;;34.43;13.85;;;;;;;1.90;75.03;100974.81;1803877;78;21072;-52
2023/01/29 04:57:24;;;;;;;40.25;14.58;;;;;;;1.90;74.78;100978.70;1821430;79;21867;-51
2023/01/29 05:00:23;;;;;;;32.85;14.58;;;;;;;1.92;74.85;100984.77;1821520;77;21084;-51
2023/01/29 05:02:53;;;;;;;58.28;16.37;;;;;;;1.97;74.94;100994.28;1821504;79;21585;-49
2023/01/29 05:05:22;;;;;;;29.85;14.33;;;;;;;2.01;75.17;100993.41;1821443;79;21060;-53
2023/01/29 05:07:51;;;;;;;44.33;17.45;;;;;;;2.08;74.98;101005.53;1821429;79;21080;-51
2023/01/29 05:10:22;;;;;;;36.98;15.30;;;;;;;2.10;74.75;101003.80;1821380;79;21036;-52
2023/01/29 05:13:02;;;;;;;44.73;17.37;;;;;;;2.16;74.72;101011.61;1821292;79;21040;-50
2023/01/29 05:15:36;;;;;;;41.28;17.20;;;;;;;2.18;74.86;101005.98;1821434;79;21154;-50
2023/01/29 05:18:07;;;;;;;46.45;16.87;;;;;;;2.33;75.06;101009.00;1821265;79;21175;-51
2023/01/29 05:20:42;;;;;;;48.68;16.40;;;;;;;2.58;75.19;101016.31;1821328;79;21076;-50
2023/01/29 05:23:18;;;;;;;31.85;13.90;;;;;;;2.80;75.02;101019.73;1820673;78;21498;-51
2023/01/29 05:25:48;;;;;;;46.02;16.48;;;;;;;2.99;74.70;101016.67;1815018;79;21068;-49
2023/01/29 05:28:16;;;;;;;39.88;17.75;;;;;;;3.13;74.47;101024.41;1814961;79;21142;-49
2023/01/29 05:30:50;;;;;;;51.88;17.82;;;;;;;3.35;74.58;101022.58;1815058;79;21112;-50
2023/01/29 05:33:26;;;;;;;34.67;14.98;;;;;;;3.62;74.40;101020.72;1815008;79;21025;-49
2023/01/29 05:35:56;;;;;;;46.65;18.37;;;;;;;3.80;74.01;101024.51;1814632;78;21989;-49
2023/01/29 05:38:24;;;;;;;46.15;17.65;;;;;;;3.93;73.69;101028.31;1815002;79;21036;-50
2023/01/29 05:40:53;;;;;;;40.78;18.67;;;;;;;4.06;73.76;101024.77;1814927;79;21589;-50
2023/01/29 05:43:24;;;;;;;47.35;18.98;;;;;;;4.27;73.70;101022.86;1815027;79;21139;-49
2023/01/29 05:45:55;;;;;;;41.88;17.27;;;;;;;4.51;73.70;101026.55;1815024;79;21056;-51
2023/01/29 05:48:24;;;;;;;43.75;15.70;;;;;;;4.63;73.43;101025.12;1815034;79;21084;-50
2023/01/29 05:50:53;;;;;;;34.13;14.23;;;;;;;4.67;73.10;101023.36;1815025;79;21499;-49
2023/01/29 05:53:22;;;;;;;32.93;14.35;;;;;;;4.78;73.04;101020.64;1814913;79;21068;-49
2023/01/29 05:55:51;;;;;;;44.73;14.85;;;;;;;4.80;72.67;101026.70;1815009;79;21065;-48
2023/01/29 05:58:19;;;;;;;40.40;16.05;;;;;;;4.73;72.35;101031.55;1815188;79;21056;-50
2023/01/29 06:00:48;;;;;;;35.88;14.87;;;;;;;4.73;72.20;101029.80;1814991;79;21052;-50
2023/01/29 06:03:17;;;;;;;28.50;13.25;;;;;;;4.67;72.10;101027.69;1815008;79;21142;-50
2023/01/29 06:05:45;;;;;;;43.17;18.60;;;;;;;4.73;72.05;101023.73;1814952;79;21116;-49
2023/01/29 06:08:14;;;;;;;34.50;16.32;;;;;;;4.80;71.85;101028.86;1815243;79;21061;-49
2023/01/29 06:10:42;;;;;;;42.03;17.77;;;;;;;4.86;71.65;101030.98;1815142;79;21122;-49
2023/01/29 06:13:11;;;;;;;39.88;18.00;;;;;;;4.95;71.51;101029.13;1815003;79;21060;-50
2023/01/29 06:15:40;;;;;;;39.80;16.75;;;;;;;4.96;71.31;101028.69;1815089;79;21123;-51
2023/01/29 06:18:08;;;;;;;38.02;16.35;;;;;;;4.97;71.20;101015.63;1815024;79;21085;-50
2023/01/29 06:20:38;;;;;;;38.55;16.93;;;;;;;5.02;71.16;101020.36;1814957;79;21242;-49
2023/01/29 06:23:06;;;;;;;27.60;14.98;;;;;;;5.13;71.08;101014.16;1815020;79;21076;-48
2023/01/29 06:25:35;;;;;;;47.90;18.55;;;;;;;5.23;70.96;101011.39;1819766;78;21127;-49
2023/01/29 06:28:04;;;;;;;40.50;17.75;;;;;;;5.29;70.79;101014.36;1821135;78;21122;-51
2023/01/29 06:30:32;;;;;;;58.08;21.95;;;;;;;5.34;70.72;101016.93;1821282;79;21064;-50
2023/01/29 06:33:01;;;;;;;51.73;27.20;;;;;;;5.35;70.56;101014.30;1821202;79;21052;-47
2023/01/29 06:35:30;;;;;;;48.87;23.98;;;;;;;5.33;70.50;101013.47;1821157;79;21475;-51
2023/01/29 06:37:59;;;;;;;45.83;23.87;;;;;;;5.34;70.49;101015.17;1821235;79;21068;-50
2023/01/29 06:40:27;;;;;;;52.70;23.35;;;;;;;5.39;70.51;101008.15;1821123;79;21135;-49
2023/01/29 06:42:56;;;;;;;52.62;24.43;;;;;;;5.49;70.56;101008.02;1821164;79;21541;-50
2023/01/29 06:45:24;;;;;;;45.80;21.73;;;;;;;5.57;70.68;101003.55;1821023;79;21056;-53
2023/01/29 06:47:54;;;;;;;46.85;21.93;;;;;;;5.64;70.80;101005.64;1821256;79;21135;-51
2023/01/29 06:50:23;;;;;;;44.53;20.68;;;;;;;5.69;70.81;101005.98;1821218;79;21064;-51
2023/01/29 06:52:51;;;;;;;44.73;20.50;;;;;;;5.71;70.86;101001.60;1821132;79;21153;-51
2023/01/29 06:55:20;;;;;;;52.43;23.25;;;;;;;5.78;70.85;100999.32;1821377;79;21059;-51
2023/01/29 06:57:48;;;;;;;53.10;22.45;;;;;;;5.86;70.78;101003.57;1821045;79;21150;-51
2023/01/29 07:00:19;;;;;;;52.58;23.05;;;;;;;5.97;70.61;100999.06;1821314;79;21272;-51
2023/01/29 07:02:49;;;;;;;49.33;21.37;;;;;;;6.06;70.44;100996.30;1821136;79;21060;-51
2023/01/29 07:05:18;;;;;;;49.70;20.85;;;;;;;6.14;70.26;101002.71;1820684;78;21134;-48
2023/01/29 07:07:47;;;;;;;54.75;21.35;;;;;;;6.21;70.14;100999.56;1821077;79;21079;-46
2023/01/29 07:10:16;;;;;;;48.45;20.62;;;;;;;6.28;69.95;100997.27;1821282;79;21115;-48
2023/01/29 07:12:44;;;;;;;50.70;21.05;;;;;;;6.39;69.82;100995.32;1821093;79;21529;-49
2023/01/29 07:15:19;;;;;;;42.70;21.15;;;;;;;6.46;69.57;100993.02;1821114;79;21056;-48
2023/01/29 07:17:45;;;;;;;40.65;16.77;;;;;;;6.49;69.38;100992.98;1820749;79;21142;-54
2023/01/29 07:20:13;;;;;;;40.67;20.95;;;;;;;6.53;69.39;100994.64;1821165;79;21506;-50
2023/01/29 07:22:42;;;;;;;50.50;22.32;;;;;;;6.54;69.45;100992.42;1821119;79;21060;-52
2023/01/29 07:25:11;;;;;;;48.42;23.07;;;;;;;6.63;69.54;100995.78;1814589;79;21183;-47
2023/01/29 07:27:39;;;;;;;47.50;21.87;;;;;;;6.73;69.56;100988.15;1798372;80;21512;-48
2023/01/29 07:30:09;;;;;;;43.83;20.02;;;;;;;6.82;69.48;100993.20;1811252;79;21503;-46
2023/01/29 07:32:38;;;;;;;56.92;22.07;;;;;;;6.89;69.44;100989.58;1817627;79;21163;-49
2023/01/29 07:35:07;;;;;;;47.65;22.02;;;;;;;7.03;69.44;100985.84;1817610;79;21061;-46
2023/01/29 07:37:36;;;;;;;44.27;20.20;;;;;;;7.17;69.27;100994.26;1817521;79;21108;-47
2023/01/29 07:40:10;;;;;;;44.83;19.32;;;;;;;7.27;69.42;100997.11;1817651;79;21503;-46
2023/01/29 07:42:36;;;;;;;41.68;17.42;;;;;;;7.35;69.55;100995.17;1817657;79;21211;-50
2023/01/29 07:45:06;;;;;;;39.08;16.07;;;;;;;7.50;69.43;100991.81;1817685;79;21111;-47
2023/01/29 07:47:34;;;;;;;39.60;15.38;;;;;;;7.67;69.33;100992.73;1817739;79;21131;-48
2023/01/29 07:50:03;;;;;;;53.28;18.75;;;;;;;7.91;68.97;100991.30;1817573;78;21128;-45
2023/01/29 07:52:33;;;;;;;45.73;17.45;;;;;;;8.15;68.66;100989.83;1817745;79;21092;-47
2023/01/29 07:55:03;;;;;;;37.10;16.73;;;;;;;8.47;68.60;100992.99;1817639;79;21076;-49
2023/01/29 07:57:32;;;;;;;34.33;14.30;;;;;;;8.91;68.24;100993.13;1817733;79;21104;-51
2023/01/29 08:00:00;;;;;;;50.78;18.75;;;;;;;9.68;67.57;100994.34;1817731;79;21089;-50
2023/01/29 08:02:29;;;;;;;41.20;16.35;;;;;;;9.89;67.31;100989.34;1817699;79;21060;-51
2023/01/29 08:04:57;;;;;;;36.88;15.83;;;;;;;9.99;67.01;100986.34;1817664;78;21052;-50
2023/01/29 08:07:26;;;;;;;33.83;15.98;;;;;;;10.03;67.02;100991.92;1817713;79;21107;-51
2023/01/29 08:09:54;;;;;;;38.67;16.45;;;;;;;9.99;67.10;100983.70;1817749;79;21127;-49
2023/01/29 08:12:23;;;;;;;33.18;15.08;;;;;;;9.96;67.12;100982.52;1817662;79;21024;-51
2023/01/29 08:14:52;;;;;;;28.62;13.55;;;;;;;9.94;67.32;100986.08;1817607;79;21076;-52
2023/01/29 08:17:20;;;;;;;26.65;12.93;;;;;;;9.93;67.29;100983.06;1817694;78;21101;-51
2023/01/29 08:19:49;;;;;;;33.80;15.08;;;;;;;9.90;67.20;100974.80;1817611;79;21055;-51
2023/01/29 08:22:17;;;;;;;33.90;15.65;;;;;;;9.95;67.12;100977.30;1817810;79;21582;-50
2023/01/29 08:24:46;;;;;;;25.25;11.90;;;;;;;10.01;67.16;100974.45;1817693;79;21135;-50
2023/01/29 08:27:14;;;;;;;23.55;10.90;;;;;;;10.05;67.21;100978.27;1817624;79;21096;-52
2023/01/29 08:29:43;;;;;;;22.27;10.95;;;;;;;10.18;67.28;100981.78;1817641;79;21179;-52
2023/01/29 08:32:12;;;;;;;22.52;11.55;;;;;;;10.23;67.10;100973.28;1817736;79;21630;-51
2023/01/29 08:34:40;;;;;;;32.20;12.95;;;;;;;10.27;66.95;100968.31;1817730;79;21164;-51
2023/01/29 08:37:09;;;;;;;25.75;10.95;;;;;;;10.42;66.79;100967.84;1817595;79;21130;-51
2023/01/29 08:39:38;;;;;;;31.90;11.85;;;;;;;10.68;66.38;100962.11;1817617;79;21515;-49
2023/01/29 08:42:06;;;;;;;23.10;9.40;;;;;;;10.76;66.03;100957.41;1817537;79;21083;-50
2023/01/29 08:44:35;;;;;;;20.90;8.68;;;;;;;10.89;65.72;100953.02;1817617;79;21477;-48
2023/01/29 08:47:04;;;;;;;24.18;9.65;;;;;;;11.14;65.39;100951.19;1817679;79;21056;-48
2023/01/29 08:49:32;;;;;;;18.98;9.78;;;;;;;11.34;64.80;100945.59;1817619;79;21127;-44
2023/01/29 08:52:01;;;;;;;21.37;9.98;;;;;;;11.38;64.28;100948.53;1817723;79;21092;-49
2023/01/29 08:54:29;;;;;;;27.40;12.85;;;;;;;11.40;64.36;100942.73;1817577;79;21104;-45
2023/01/29 08:56:58;;;;;;;29.87;12.80;;;;;;;11.49;64.27;100946.77;1817635;78;21149;-44
2023/01/29 08:59:27;;;;;;;44.25;17.25;;;;;;;11.70;64.09;100937.16;1817716;79;21218;-47
2023/01/29 09:01:55;;;;;;;42.35;17.90;;;;;;;12.07;63.48;100939.16;1817686;78;21134;-45
2023/01/29 09:04:24;;;;;;;29.02;13.45;;;;;;;12.80;62.40;100934.24;1817700;79;21497;-44
2023/01/29 09:06:53;;;;;;;20.30;9.83;;;;;;;13.79;60.67;100923.85;1817760;78;21508;-47
2023/01/29 09:09:22;;;;;;;28.83;13.43;;;;;;;13.92;60.14;100919.28;1817672;79;21176;-45
2023/01/29 09:11:51;;;;;;;19.42;8.33;;;;;;;13.83;59.64;100922.79;1817658;79;21068;-46
2023/01/29 09:14:19;;;;;;;16.37;8.73;;;;;;;13.74;59.75;100917.95;1817643;79;21534;-44
2023/01/29 09:16:48;;;;;;;15.48;7.20;;;;;;;13.58;59.19;100913.02;1817627;79;21040;-45
2023/01/29 09:19:17;;;;;;;14.43;6.87;;;;;;;13.49;59.60;100913.84;1817698;79;21164;-46
2023/01/29 09:21:45;;;;;;;22.17;7.22;;;;;;;13.29;59.80;100912.11;1817630;79;21088;-49
2023/01/29 09:24:14;;;;;;;15.70;7.00;;;;;;;13.67;59.17;100908.13;1817639;79;21064;-50
2023/01/29 09:26:42;;;;;;;14.75;6.33;;;;;;;14.42;57.66;100905.23;1817709;78;21148;-46
2023/01/29 09:29:11;;;;;;;16.30;6.25;;;;;;;15.24;56.26;100892.44;1817695;79;21089;-47
2023/01/29 09:31:40;;;;;;;14.95;7.62;;;;;;;16.34;54.40;100893.59;1817665;78;21489;-48
2023/01/29 09:34:08;;;;;;;16.17;6.72;;;;;;;16.42;53.70;100889.16;1817533;79;21060;-45
2023/01/29 09:36:37;;;;;;;16.65;6.58;;;;;;;15.53;54.98;100883.28;1817680;78;21028;-48
2023/01/29 09:39:05;;;;;;;13.78;7.33;;;;;;;14.79;56.47;100888.72;1817795;79;21212;-45
2023/01/29 09:41:50;;;;;;;14.83;7.37;;;;;;;14.36;57.25;100886.54;1817753;79;21159;-48
2023/01/29 09:44:21;;;;;;;18.12;7.65;;;;;;;14.35;57.26;100886.17;1817607;79;21040;-45
2023/01/29 09:46:53;;;;;;;21.17;8.08;;;;;;;14.68;56.92;100874.72;1817451;78;21130;-47
2023/01/29 09:49:38;;;;;;;19.02;7.95;;;;;;;14.55;57.23;100877.17;1817647;79;21072;-49
2023/01/29 09:52:12;;;;;;;24.18;9.70;;;;;;;14.40;57.45;100872.19;1817676;78;21632;-50
2023/01/29 09:54:55;;;;;;;21.00;9.10;;;;;;;13.94;58.30;100875.05;1817692;77;21101;-48
2023/01/29 09:57:33;;;;;;;15.72;7.25;;;;;;;13.40;58.96;100879.91;1817747;79;21245;-49
2023/01/29 10:00:02;;;;;;;13.22;6.53;;;;;;;13.15;59.69;100878.89;1810166;79;21563;-46
2023/01/29 10:02:37;;;;;;;24.55;7.00;;;;;;;13.01;60.03;100876.88;1817615;78;21083;-49
2023/01/29 10:05:21;;;;;;;14.80;5.90;;;;;;;12.99;60.17;100875.25;1817390;78;21138;-48
2023/01/29 10:07:54;;;;;;;14.73;6.53;;;;;;;13.06;60.16;100873.56;1817710;77;21163;-48
2023/01/29 10:10:49;;;;;;;11.90;5.33;;;;;;;13.09;59.99;100873.40;1817614;78;21139;-43
2023/01/29 10:13:42;;;;;;;21.27;7.37;;;;;;;13.18;59.90;100862.86;1817713;79;21511;-43
2023/01/29 10:16:17;;;;;;;17.35;7.33;;;;;;;13.24;59.84;100861.70;1817571;78;21135;-50
2023/01/29 10:19:13;;;;;;;14.93;6.30;;;;;;;13.39;59.62;100854.84;1817646;77;21150;-48
2023/01/29 10:21:56;;;;;;;15.13;5.80;;;;;;;13.42;59.49;100854.70;1817957;78;21064;-47
2023/01/29 10:24:44;;;;;;;14.15;5.72;;;;;;;13.38;59.59;100848.70;1817615;78;21065;-46
2023/01/29 10:27:18;;;;;;;15.95;5.37;;;;;;;13.43;59.57;100849.34;1815335;78;21096;-42
2023/01/29 10:29:49;;;;;;;17.10;6.28;;;;;;;13.41;59.49;100843.28;1813582;79;21621;-43
2023/01/29 10:32:20;;;;;;;16.90;6.37;;;;;;;13.39;59.40;100843.83;1798861;77;21249;-49
2023/01/29 10:34:55;;;;;;;13.85;5.58;;;;;;;13.45;59.34;100840.87;1793536;78;21187;-47
2023/01/29 10:37:26;;;;;;;11.88;5.58;;;;;;;13.67;58.97;100835.36;1800411;78;21237;-49
2023/01/29 10:39:55;;;;;;;15.68;5.67;;;;;;;14.12;58.39;100833.07;1796217;79;21602;-44
2023/01/29 10:42:32;;;;;;;16.17;5.97;;;;;;;14.60;57.47;100830.56;1793632;79;21182;-48
2023/01/29 10:45:06;;;;;;;11.60;4.33;;;;;;;15.08;56.74;100826.13;1795092;79;21076;-44
2023/01/29 10:47:40;;;;;;;12.43;4.92;;;;;;;15.57;55.87;100821.98;1796291;79;21544;-47
2023/01/29 10:50:17;;;;;;;15.25;6.03;;;;;;;15.43;56.26;100824.10;1799901;78;21806;-43
2023/01/29 10:52:52;;;;;;;25.02;6.37;;;;;;;15.32;56.44;100821.22;1798873;79;21239;-44
2023/01/29 10:55:53;;;;;;;15.63;5.95;;;;;;;15.17;56.90;100815.48;1780572;79;21093;-43
2023/01/29 10:58:42;;;;;;;23.25;7.80;;;;;;;14.88;57.15;100819.29;1799256;78;21649;-45
2023/01/29 11:01:12;;;;;;;14.63;5.40;;;;;;;14.58;57.65;100816.07;1792316;79;21100;-44
2023/01/29 11:03:41;;;;;;;17.02;6.55;;;;;;;14.39;57.87;100819.31;1793495;79;21243;-48
2023/01/29 11:06:24;;;;;;;17.23;7.12;;;;;;;14.33;58.15;100818.30;1801898;79;21064;-43
2023/01/29 11:09:08;;;;;;;19.70;7.15;;;;;;;14.27;58.31;100815.06;1795133;79;21265;-47
2023/01/29 11:11:40;;;;;;;21.02;6.65;;;;;;;14.21;58.38;100816.70;1792446;79;21593;-46
2023/01/29 11:14:14;;;;;;;17.87;6.37;;;;;;;14.09;58.55;100814.23;1799054;79;21219;-48
2023/01/29 11:16:45;;;;;;;20.35;6.22;;;;;;;13.93;58.69;100816.45;1747347;80;21168;-46
2023/01/29 11:19:15;;;;;;;15.88;6.75;;;;;;;13.78;58.77;100810.16;1778514;80;21213;-48
2023/01/29 11:22:03;;;;;;;19.67;6.33;;;;;;;13.66;58.89;100806.33;1739987;81;21243;-49
2023/01/29 11:24:31;;;;;;;23.95;6.92;;;;;;;13.56;59.00;100804.62;1806119;78;21236;-51
2023/01/29 11:27:00;;;;;;;14.45;6.75;;;;;;;13.42;59.45;100811.91;1807958;77;21130;-52
2023/01/29 11:29:35;;;;;;;16.20;6.95;;;;;;;13.30;59.61;100813.39;1795596;79;21103;-47
2023/01/29 11:32:15;;;;;;;24.95;7.20;;;;;;;13.22;59.77;100812.86;1788741;79;21156;-45
2023/01/29 11:35:05;;;;;;;22.73;8.13;;;;;;;13.13;59.95;100808.90;1783693;79;21631;-46
2023/01/29 11:37:42;;;;;;;18.30;7.12;;;;;;;13.06;60.12;100811.44;1794282;78;21208;-49
2023/01/29 11:40:38;;;;;;;15.58;6.97;;;;;;;13.00;60.23;100810.39;1801527;78;21048;-47
2023/01/29 11:43:30;;;;;;;16.52;7.08;;;;;;;12.97;60.35;100807.92;1804908;78;21202;-45
2023/01/29 11:46:04;;;;;;;17.52;7.10;;;;;;;12.89;60.48;100800.36;1805006;77;21158;-44
2023/01/29 11:48:35;;;;;;;23.27;7.75;;;;;;;12.84;60.59;100802.84;1799277;77;21174;-45
2023/01/29 11:51:04;;;;;;;22.10;8.50;;;;;;;12.73;60.74;100806.83;1806926;78;21025;-45
2023/01/29 11:53:42;;;;;;;20.70;8.23;;;;;;;12.59;60.97;100805.29;1812802;78;21024;-45
2023/01/29 11:56:20;;;;;;;21.85;8.25;;;;;;;12.46;61.18;100818.20;1811456;78;21165;-45
2023/01/29 11:58:51;;;;;;;25.75;10.00;;;;;;;12.31;61.47;100815.80;1812943;78;21534;-46
2023/01/29 12:01:25;;;;;;;20.08;8.55;;;;;;;12.19;61.65;100815.05;1807826;78;21127;-45
2023/01/29 12:03:54;;;;;;;22.32;8.73;;;;;;;12.09;61.81;100812.41;1805378;78;21068;-47